Time;durP1;ratioP1;P1;durP2;ratioP2;P2;SDS_P1;SDS_P2;PMS_P1;PMS_P2;Temp;Humidity;BMP_temperature;BMP_pressure;BME280_temperature;BME280_humidity;BME280_pressure;Samples;Min_cycle;Max_cycle;Signal;HPM_P1;HPM_P2
2022/03/24 00:00:23;;;;;;;22.37;16.13;;;;;;;;;;5063618;28;20200;-74
2022/03/24 00:02:50;;;;;;;25.73;16.17;;;;;;;;;;5064621;28;20256;-74
2022/03/24 00:05:16;;;;;;;24.40;15.80;;;;;;;;;;5064762;28;20720;-74
2022/03/24 00:07:42;;;;;;;25.50;16.00;;;;;;;;;;5064931;28;20563;-74
2022/03/24 00:10:09;;;;;;;26.63;16.73;;;;;;;;;;5061714;28;20197;-75
2022/03/24 00:12:35;;;;;;;24.70;17.13;;;;;;;;;;5061913;28;20217;-74
2022/03/24 00:15:03;;;;;;;25.90;16.73;;;;;;;;;;5064608;28;20244;-74
2022/03/24 00:17:33;;;;;;;23.30;16.67;;;;;;;;;;5065052;28;20929;-73
2022/03/24 00:20:01;;;;;;;20.43;15.40;;;;;;;;;;5069849;28;20188;-74
2022/03/24 00:22:27;;;;;;;24.43;16.83;;;;;;;;;;5063527;28;20235;-74
2022/03/24 00:24:53;;;;;;;20.60;14.43;;;;;;;;;;5063653;28;20568;-74
2022/03/24 00:27:20;;;;;;;22.93;15.00;;;;;;;;;;5064477;28;20177;-74
2022/03/24 00:29:46;;;;;;;20.50;14.07;;;;;;;;;;5067005;28;20186;-74
2022/03/24 00:32:13;;;;;;;25.13;16.57;;;;;;;;;;5065287;28;20220;-74
2022/03/24 00:34:39;;;;;;;25.83;16.53;;;;;;;;;;5067892;28;20189;-74
2022/03/24 00:37:09;;;;;;;25.73;16.37;;;;;;;;;;5060725;28;20216;-74
2022/03/24 00:39:36;;;;;;;26.67;15.77;;;;;;;;;;5062297;28;20645;-74
2022/03/24 00:42:05;;;;;;;24.90;15.80;;;;;;;;;;5065106;28;20215;-76
2022/03/24 00:44:32;;;;;;;24.77;14.87;;;;;;;;;;5062101;28;20180;-74
2022/03/24 00:46:58;;;;;;;24.27;16.17;;;;;;;;;;5062798;28;20189;-74
2022/03/24 00:49:25;;;;;;;24.13;15.80;;;;;;;;;;5058686;28;20225;-74
2022/03/24 00:51:51;;;;;;;20.83;15.37;;;;;;;;;;5066268;28;20239;-75
2022/03/24 00:54:18;;;;;;;21.33;15.17;;;;;;;;;;5064968;28;20184;-75
2022/03/24 00:56:45;;;;;;;23.33;15.33;;;;;;;;;;5063170;28;20189;-74
2022/03/24 00:59:12;;;;;;;22.20;15.77;;;;;;;;;;5062727;28;20192;-74
2022/03/24 01:01:39;;;;;;;20.87;15.67;;;;;;;;;;5061419;28;20209;-75
2022/03/24 01:04:09;;;;;;;21.63;16.30;;;;;;;;;;5064891;28;20189;-74
2022/03/24 01:06:35;;;;;;;24.00;17.60;;;;;;;;;;5068905;28;20192;-74
2022/03/24 01:09:02;;;;;;;28.73;17.87;;;;;;;;;;5062255;28;20181;-74
2022/03/24 01:11:28;;;;;;;23.30;15.33;;;;;;;;;;5060901;28;20189;-74
2022/03/24 01:13:55;;;;;;;22.97;16.80;;;;;;;;;;5058267;28;20482;-74
2022/03/24 01:16:23;;;;;;;25.77;15.90;;;;;;;;;;5059237;28;20177;-74
2022/03/24 01:18:50;;;;;;;28.83;17.63;;;;;;;;;;5057666;28;20222;-74
2022/03/24 01:21:16;;;;;;;40.23;21.20;;;;;;;;;;5062692;28;20184;-74
2022/03/24 01:23:44;;;;;;;33.37;19.37;;;;;;;;;;5063368;28;20209;-75
2022/03/24 01:26:11;;;;;;;29.93;18.13;;;;;;;;;;5065945;28;20374;-74
2022/03/24 01:28:39;;;;;;;31.17;16.90;;;;;;;;;;5066077;28;20185;-75
2022/03/24 01:31:08;;;;;;;27.13;17.37;;;;;;;;;;5061902;28;20579;-74
2022/03/24 01:33:37;;;;;;;24.03;16.43;;;;;;;;;;5060894;28;20303;-74
2022/03/24 01:36:05;;;;;;;22.63;15.10;;;;;;;;;;5054488;28;20217;-74
2022/03/24 01:38:32;;;;;;;21.77;14.97;;;;;;;;;;5057808;28;20193;-74
2022/03/24 01:40:58;;;;;;;22.13;15.00;;;;;;;;;;5064798;28;20181;-74
2022/03/24 01:43:25;;;;;;;24.57;15.87;;;;;;;;;;5064025;28;20213;-74
2022/03/24 01:45:52;;;;;;;26.67;16.97;;;;;;;;;;5060355;28;20200;-74
2022/03/24 01:48:18;;;;;;;26.17;16.47;;;;;;;;;;5063295;28;20234;-74
2022/03/24 01:50:45;;;;;;;31.30;20.07;;;;;;;;;;5048234;28;20573;-74
2022/03/24 01:53:14;;;;;;;25.13;17.30;;;;;;;;;;5060565;28;20220;-74
2022/03/24 01:55:44;;;;;;;26.90;19.03;;;;;;;;;;5066677;28;20607;-74
2022/03/24 01:58:12;;;;;;;23.50;17.63;;;;;;;;;;5063247;28;20185;-75
2022/03/24 02:00:38;;;;;;;22.70;15.50;;;;;;;;;;5067903;28;20189;-74
2022/03/24 02:03:05;;;;;;;24.67;15.87;;;;;;;;;;5067062;28;20229;-74
2022/03/24 02:05:32;;;;;;;23.10;15.57;;;;;;;;;;5066210;28;20199;-74
2022/03/24 02:08:02;;;;;;;22.57;15.20;;;;;;;;;;5070660;28;20693;-74
2022/03/24 02:10:28;;;;;;;25.17;16.93;;;;;;;;;;5047831;28;20240;-74
2022/03/24 02:12:56;;;;;;;29.30;19.67;;;;;;;;;;5056009;28;20216;-74
2022/03/24 02:15:24;;;;;;;27.10;18.97;;;;;;;;;;5063295;28;20223;-74
2022/03/24 02:17:52;;;;;;;22.10;16.60;;;;;;;;;;5064436;28;20177;-74
2022/03/24 02:20:20;;;;;;;24.87;15.50;;;;;;;;;;5057324;28;20681;-74
2022/03/24 02:22:48;;;;;;;25.87;17.03;;;;;;;;;;5065258;28;20213;-74
2022/03/24 02:25:14;;;;;;;22.97;16.83;;;;;;;;;;5066662;28;20185;-75
2022/03/24 02:27:40;;;;;;;25.53;17.57;;;;;;;;;;5060652;28;20186;-74
2022/03/24 02:30:06;;;;;;;24.27;16.53;;;;;;;;;;5065627;28;20196;-74
2022/03/24 02:32:33;;;;;;;21.83;15.83;;;;;;;;;;5064297;28;20216;-74
2022/03/24 02:34:59;;;;;;;23.33;17.17;;;;;;;;;;5066747;28;20222;-74
2022/03/24 02:37:28;;;;;;;26.90;16.33;;;;;;;;;;5063015;28;20185;-74
2022/03/24 02:39:55;;;;;;;22.40;16.03;;;;;;;;;;5062555;28;20173;-74
2022/03/24 02:42:23;;;;;;;23.93;16.17;;;;;;;;;;5064956;28;20746;-74
2022/03/24 02:44:51;;;;;;;21.10;15.63;;;;;;;;;;5065921;28;20950;-74
2022/03/24 02:47:17;;;;;;;24.57;16.23;;;;;;;;;;5065867;28;20200;-74
2022/03/24 02:49:44;;;;;;;25.47;16.20;;;;;;;;;;5066459;28;20272;-74
2022/03/24 02:52:11;;;;;;;26.07;17.73;;;;;;;;;;5062654;28;20282;-74
2022/03/24 02:54:37;;;;;;;25.07;17.70;;;;;;;;;;5071388;28;20185;-74
2022/03/24 02:57:04;;;;;;;24.03;17.00;;;;;;;;;;5068775;28;20181;-74
2022/03/24 02:59:31;;;;;;;25.77;17.80;;;;;;;;;;5070944;28;20541;-75
2022/03/24 03:01:59;;;;;;;24.63;16.83;;;;;;;;;;5070207;28;20715;-74
2022/03/24 03:04:26;;;;;;;29.60;18.13;;;;;;;;;;5070990;28;20858;-74
2022/03/24 03:06:53;;;;;;;25.87;18.33;;;;;;;;;;5070515;28;20267;-74
2022/03/24 03:09:20;;;;;;;27.47;17.13;;;;;;;;;;5070325;28;20209;-74
2022/03/24 03:11:46;;;;;;;24.60;16.80;;;;;;;;;;5068980;28;20308;-74
2022/03/24 03:14:14;;;;;;;21.07;15.70;;;;;;;;;;5070192;28;20193;-74
2022/03/24 03:16:41;;;;;;;22.73;15.60;;;;;;;;;;5060152;28;20182;-74
2022/03/24 03:19:08;;;;;;;23.73;16.00;;;;;;;;;;5068422;28;20185;-74
2022/03/24 03:21:36;;;;;;;23.83;15.83;;;;;;;;;;5063758;28;20268;-74
2022/03/24 03:24:02;;;;;;;24.57;16.93;;;;;;;;;;5067455;28;20287;-74
2022/03/24 03:26:29;;;;;;;24.67;16.70;;;;;;;;;;5068621;28;20625;-74
2022/03/24 03:28:55;;;;;;;23.43;16.70;;;;;;;;;;5066158;28;20196;-74
2022/03/24 03:31:21;;;;;;;20.97;15.97;;;;;;;;;;5069407;28;20667;-74
2022/03/24 03:33:48;;;;;;;22.53;16.20;;;;;;;;;;5067996;28;20224;-74
2022/03/24 03:36:14;;;;;;;24.40;17.30;;;;;;;;;;5069840;28;20185;-74
2022/03/24 03:38:40;;;;;;;24.53;17.50;;;;;;;;;;5066256;28;20255;-74
2022/03/24 03:41:07;;;;;;;25.97;17.63;;;;;;;;;;5069162;28;20297;-74
2022/03/24 03:43:33;;;;;;;26.03;17.13;;;;;;;;;;5064700;28;20739;-74
2022/03/24 03:46:01;;;;;;;21.50;16.50;;;;;;;;;;5066173;28;20660;-74
2022/03/24 03:48:27;;;;;;;24.60;17.20;;;;;;;;;;5065890;28;20193;-74
2022/03/24 03:50:53;;;;;;;23.03;16.40;;;;;;;;;;5071454;28;20660;-74
2022/03/24 03:53:19;;;;;;;23.93;16.60;;;;;;;;;;5068820;28;20851;-74
2022/03/24 03:55:45;;;;;;;24.53;17.00;;;;;;;;;;5068268;28;20760;-74
2022/03/24 03:58:11;;;;;;;22.73;16.70;;;;;;;;;;5050844;28;20223;-74
2022/03/24 04:00:53;;;;;;;24.60;18.17;;;;;;;;;;5063248;28;20196;-74
2022/03/24 04:03:28;;;;;;;25.47;17.80;;;;;;;;;;5067867;28;20239;-74
2022/03/24 04:05:55;;;;;;;24.60;17.60;;;;;;;;;;5065762;28;20183;-74
2022/03/24 04:08:22;;;;;;;23.57;17.13;;;;;;;;;;5069048;28;20274;-74
2022/03/24 04:10:49;;;;;;;22.63;16.53;;;;;;;;;;5057708;28;20196;-74
2022/03/24 04:13:16;;;;;;;25.17;17.63;;;;;;;;;;5068363;28;20580;-74
2022/03/24 04:15:42;;;;;;;21.63;15.97;;;;;;;;;;5061025;28;20705;-74
2022/03/24 04:18:09;;;;;;;30.93;18.57;;;;;;;;;;5055995;28;20197;-74
2022/03/24 04:20:36;;;;;;;26.77;18.87;;;;;;;;;;5069493;28;20670;-74
2022/03/24 04:23:04;;;;;;;26.77;18.57;;;;;;;;;;5032884;28;20303;-74
2022/03/24 04:25:30;;;;;;;25.60;17.80;;;;;;;;;;5056562;28;20196;-74
2022/03/24 04:27:57;;;;;;;25.73;18.23;;;;;;;;;;5066780;28;20189;-74
2022/03/24 04:30:25;;;;;;;25.07;18.30;;;;;;;;;;5068897;28;20250;-74
2022/03/24 04:32:51;;;;;;;26.30;17.17;;;;;;;;;;5066795;28;20700;-74
2022/03/24 04:35:17;;;;;;;25.97;17.17;;;;;;;;;;5067824;28;20188;-74
2022/03/24 04:37:44;;;;;;;25.53;17.70;;;;;;;;;;5070509;28;20284;-74
2022/03/24 04:40:11;;;;;;;21.30;16.43;;;;;;;;;;5068081;28;20192;-74
2022/03/24 04:42:38;;;;;;;25.50;17.03;;;;;;;;;;5065589;28;20205;-74
2022/03/24 04:45:04;;;;;;;25.13;17.63;;;;;;;;;;5066443;28;20214;-74
2022/03/24 04:47:30;;;;;;;24.70;16.17;;;;;;;;;;5068364;28;20185;-74
2022/03/24 04:49:57;;;;;;;23.77;17.40;;;;;;;;;;5057234;28;20296;-74
2022/03/24 04:52:23;;;;;;;23.37;16.70;;;;;;;;;;5064509;28;20213;-75
2022/03/24 04:54:50;;;;;;;22.57;16.80;;;;;;;;;;5049099;28;20202;-74
2022/03/24 04:57:16;;;;;;;26.50;16.40;;;;;;;;;;5063650;28;20213;-74
2022/03/24 04:59:43;;;;;;;25.67;17.10;;;;;;;;;;5064795;28;20185;-74
2022/03/24 05:02:15;;;;;;;21.40;15.83;;;;;;;;;;5066634;28;20208;-74
2022/03/24 05:04:41;;;;;;;24.67;17.10;;;;;;;;;;5067466;28;20196;-74
2022/03/24 05:07:08;;;;;;;26.87;17.00;;;;;;;;;;5063628;28;20181;-74
2022/03/24 05:09:34;;;;;;;25.10;17.17;;;;;;;;;;5067060;28;20189;-74
2022/03/24 05:12:00;;;;;;;24.83;17.50;;;;;;;;;;5049591;28;20217;-74
2022/03/24 05:14:27;;;;;;;26.20;17.33;;;;;;;;;;5061004;28;20224;-74
2022/03/24 05:16:53;;;;;;;23.57;16.83;;;;;;;;;;5066478;28;20570;-74
2022/03/24 05:19:19;;;;;;;25.60;17.53;;;;;;;;;;5067497;28;20185;-74
2022/03/24 05:21:45;;;;;;;26.90;16.77;;;;;;;;;;5068058;28;20234;-74
2022/03/24 05:24:12;;;;;;;25.90;16.77;;;;;;;;;;5059591;28;20196;-74
2022/03/24 05:26:39;;;;;;;26.87;17.33;;;;;;;;;;5067825;28;20184;-74
2022/03/24 05:29:05;;;;;;;23.73;16.73;;;;;;;;;;5066906;28;20185;-74
2022/03/24 05:31:31;;;;;;;23.13;17.27;;;;;;;;;;5066978;28;20230;-74
2022/03/24 05:33:58;;;;;;;23.47;16.60;;;;;;;;;;5067874;28;20191;-74
2022/03/24 05:36:24;;;;;;;23.47;16.30;;;;;;;;;;5067360;28;20258;-74
2022/03/24 05:38:51;;;;;;;23.37;15.47;;;;;;;;;;5064820;28;20185;-74
2022/03/24 05:41:17;;;;;;;25.30;17.10;;;;;;;;;;5066975;28;20191;-74
2022/03/24 05:46:32;;;;;;;25.80;18.53;;;;;;;;;;5064623;28;20188;-74
2022/03/24 05:48:58;;;;;;;26.30;18.90;;;;;;;;;;5067172;28;20181;-74
2022/03/24 05:51:44;;;;;;;26.73;18.33;;;;;;;;;;5067325;28;20654;-74
2022/03/24 05:54:13;;;;;;;25.73;18.17;;;;;;;;;;5061005;28;20181;-74
2022/03/24 05:56:40;;;;;;;27.43;16.70;;;;;;;;;;5067125;28;20188;-74
2022/03/24 05:59:06;;;;;;;26.50;17.63;;;;;;;;;;5065967;28;20204;-74
2022/03/24 06:01:33;;;;;;;26.67;18.30;;;;;;;;;;5060022;28;20193;-74
2022/03/24 06:04:00;;;;;;;26.57;18.67;;;;;;;;;;5058207;28;20913;-74
2022/03/24 06:06:27;;;;;;;27.17;17.87;;;;;;;;;;5064260;28;20188;-74
2022/03/24 06:08:58;;;;;;;27.07;17.57;;;;;;;;;;5048632;28;20201;-74
2022/03/24 06:11:24;;;;;;;26.27;17.03;;;;;;;;;;5065532;28;20222;-73
2022/03/24 06:13:51;;;;;;;25.83;17.53;;;;;;;;;;5062639;28;20216;-75
2022/03/24 06:16:18;;;;;;;25.83;17.03;;;;;;;;;;5067247;28;20177;-77
2022/03/24 06:18:45;;;;;;;25.47;17.30;;;;;;;;;;5067808;28;20189;-76
2022/03/24 06:21:12;;;;;;;25.87;17.43;;;;;;;;;;5067303;28;20822;-76
2022/03/24 06:23:38;;;;;;;24.20;17.13;;;;;;;;;;5066613;28;20334;-77
2022/03/24 06:26:04;;;;;;;28.70;17.83;;;;;;;;;;5083032;28;20223;-73
2022/03/24 06:28:31;;;;;;;28.13;17.50;;;;;;;;;;5074954;28;20192;-74
2022/03/24 06:30:57;;;;;;;31.00;18.90;;;;;;;;;;5062475;28;20729;-72
2022/03/24 06:33:23;;;;;;;26.33;17.70;;;;;;;;;;5065353;28;20216;-74
2022/03/24 06:35:50;;;;;;;30.67;18.50;;;;;;;;;;5067700;28;20177;-73
2022/03/24 06:38:18;;;;;;;27.20;19.40;;;;;;;;;;5062663;28;20193;-72
2022/03/24 06:40:44;;;;;;;28.00;18.13;;;;;;;;;;5067755;28;20592;-74
2022/03/24 06:43:10;;;;;;;26.43;18.47;;;;;;;;;;5060782;28;20220;-75
2022/03/24 06:45:37;;;;;;;29.53;19.73;;;;;;;;;;5060230;28;20185;-72
2022/03/24 06:48:07;;;;;;;25.23;18.27;;;;;;;;;;5061613;28;20665;-74
2022/03/24 06:50:33;;;;;;;26.07;18.03;;;;;;;;;;5070731;28;20177;-77
2022/03/24 06:52:59;;;;;;;30.47;19.90;;;;;;;;;;5071059;28;20209;-73
2022/03/24 06:55:26;;;;;;;24.60;18.33;;;;;;;;;;5071346;28;20581;-76
2022/03/24 06:57:53;;;;;;;27.77;19.17;;;;;;;;;;5064474;28;20191;-76
2022/03/24 07:00:20;;;;;;;26.00;19.27;;;;;;;;;;5068999;28;20193;-75
2022/03/24 07:02:47;;;;;;;28.00;20.53;;;;;;;;;;5070378;28;20676;-74
2022/03/24 07:05:14;;;;;;;28.13;20.17;;;;;;;;;;5070840;28;20272;-75
2022/03/24 07:07:40;;;;;;;29.03;20.00;;;;;;;;;;5071201;28;21039;-74
2022/03/24 07:10:07;;;;;;;29.33;20.77;;;;;;;;;;5074448;28;20219;-75
2022/03/24 07:12:34;;;;;;;28.23;20.87;;;;;;;;;;5070025;28;20241;-75
2022/03/24 07:15:00;;;;;;;31.43;20.83;;;;;;;;;;5068757;28;20299;-75
2022/03/24 07:17:27;;;;;;;27.60;19.63;;;;;;;;;;5070616;28;20280;-75
2022/03/24 07:19:53;;;;;;;34.77;20.93;;;;;;;;;;5070192;28;20184;-75
2022/03/24 07:22:19;;;;;;;31.23;20.30;;;;;;;;;;5070279;28;20201;-75
2022/03/24 07:24:46;;;;;;;34.33;20.97;;;;;;;;;;5064349;28;20224;-75
2022/03/24 07:27:14;;;;;;;32.93;20.43;;;;;;;;;;5066275;28;20607;-76
2022/03/24 07:29:41;;;;;;;28.53;20.30;;;;;;;;;;5058223;28;20217;-77
2022/03/24 07:32:08;;;;;;;31.63;20.20;;;;;;;;;;5072012;28;20205;-77
2022/03/24 07:34:35;;;;;;;28.67;19.60;;;;;;;;;;5058147;28;20236;-77
2022/03/24 07:37:02;;;;;;;29.87;19.40;;;;;;;;;;5050986;28;20209;-77
2022/03/24 07:39:28;;;;;;;29.67;19.77;;;;;;;;;;5069435;28;20189;-77
2022/03/24 07:41:55;;;;;;;31.17;19.10;;;;;;;;;;5070630;28;20241;-77
2022/03/24 07:44:21;;;;;;;24.03;17.73;;;;;;;;;;5069646;28;20280;-77
2022/03/24 07:46:47;;;;;;;24.87;19.33;;;;;;;;;;5071143;28;20188;-77
2022/03/24 07:49:13;;;;;;;27.60;19.20;;;;;;;;;;5076413;28;20983;-77
2022/03/24 07:51:39;;;;;;;27.47;20.27;;;;;;;;;;5070555;28;20200;-77
2022/03/24 07:54:09;;;;;;;28.13;20.67;;;;;;;;;;5063355;28;20185;-76
2022/03/24 07:56:36;;;;;;;29.77;21.43;;;;;;;;;;5063666;28;20260;-77
2022/03/24 07:59:04;;;;;;;30.03;20.90;;;;;;;;;;5068800;28;20242;-77
2022/03/24 08:01:34;;;;;;;27.40;20.77;;;;;;;;;;5069647;28;20208;-77
2022/03/24 08:04:01;;;;;;;33.23;21.33;;;;;;;;;;5068778;28;20211;-77
2022/03/24 08:06:28;;;;;;;33.93;21.30;;;;;;;;;;5070642;28;20268;-77
2022/03/24 08:08:54;;;;;;;31.87;19.97;;;;;;;;;;5053638;28;20641;-77
2022/03/24 08:11:22;;;;;;;26.77;19.53;;;;;;;;;;5048912;28;20197;-77
2022/03/24 08:13:52;;;;;;;28.43;19.63;;;;;;;;;;5059194;28;20204;-77
2022/03/24 08:16:18;;;;;;;29.07;19.87;;;;;;;;;;5069208;28;20185;-77
2022/03/24 08:18:44;;;;;;;26.50;19.93;;;;;;;;;;5068790;28;20199;-77
2022/03/24 08:21:10;;;;;;;28.37;20.60;;;;;;;;;;5069273;28;20318;-77
2022/03/24 08:23:37;;;;;;;27.30;19.00;;;;;;;;;;5069688;28;20212;-77
2022/03/24 08:26:03;;;;;;;30.83;20.77;;;;;;;;;;5068945;28;20216;-77
2022/03/24 08:28:29;;;;;;;27.43;19.97;;;;;;;;;;5069897;28;20189;-77
2022/03/24 08:30:55;;;;;;;27.67;20.43;;;;;;;;;;5069312;28;20246;-77
2022/03/24 08:33:22;;;;;;;29.60;21.30;;;;;;;;;;5067963;28;20213;-77
2022/03/24 08:35:48;;;;;;;30.37;20.87;;;;;;;;;;5074681;28;20182;-77
2022/03/24 08:38:14;;;;;;;28.30;21.00;;;;;;;;;;5067537;28;20255;-77
2022/03/24 08:40:40;;;;;;;28.03;19.37;;;;;;;;;;5067704;28;20177;-77
2022/03/24 08:43:07;;;;;;;29.30;19.80;;;;;;;;;;5067694;28;20209;-77
2022/03/24 08:45:34;;;;;;;26.07;18.70;;;;;;;;;;5069676;28;20739;-77
2022/03/24 08:48:00;;;;;;;26.87;19.27;;;;;;;;;;5069573;28;20177;-77
2022/03/24 08:50:26;;;;;;;28.67;18.93;;;;;;;;;;5069661;28;20193;-77
2022/03/24 08:52:52;;;;;;;26.53;19.33;;;;;;;;;;5068731;28;20212;-77
2022/03/24 08:55:19;;;;;;;28.80;19.40;;;;;;;;;;5066408;28;20189;-77
2022/03/24 08:57:46;;;;;;;25.17;18.70;;;;;;;;;;5069008;28;20243;-77
2022/03/24 09:00:17;;;;;;;28.83;19.50;;;;;;;;;;5068223;28;20188;-76
2022/03/24 09:02:46;;;;;;;24.97;17.07;;;;;;;;;;5049191;28;20232;-76
2022/03/24 09:05:13;;;;;;;26.63;18.83;;;;;;;;;;5048728;28;20194;-76
2022/03/24 09:07:40;;;;;;;27.90;18.73;;;;;;;;;;5062756;28;20197;-76
2022/03/24 09:10:07;;;;;;;28.90;19.03;;;;;;;;;;5067641;28;20185;-76
2022/03/24 09:12:35;;;;;;;26.77;18.60;;;;;;;;;;5064465;28;20955;-76
2022/03/24 09:15:05;;;;;;;28.00;19.57;;;;;;;;;;5068222;28;20241;-76
2022/03/24 09:17:31;;;;;;;28.27;19.03;;;;;;;;;;5065472;28;20265;-77
2022/03/24 09:19:57;;;;;;;28.30;20.40;;;;;;;;;;5069101;28;20504;-76
2022/03/24 09:22:23;;;;;;;31.37;20.30;;;;;;;;;;5070101;28;20266;-76
2022/03/24 09:24:49;;;;;;;31.40;19.37;;;;;;;;;;5068852;28;20193;-77
2022/03/24 09:27:15;;;;;;;25.43;17.43;;;;;;;;;;5067248;28;20861;-77
2022/03/24 09:29:42;;;;;;;26.97;19.13;;;;;;;;;;5064579;28;20197;-77
2022/03/24 09:32:12;;;;;;;23.93;19.23;;;;;;;;;;5067998;28;20232;-77
2022/03/24 09:34:42;;;;;;;23.63;18.00;;;;;;;;;;5068880;28;20212;-77
2022/03/24 09:37:08;;;;;;;28.23;18.50;;;;;;;;;;5068648;28;20272;-78
2022/03/24 09:39:35;;;;;;;24.87;18.03;;;;;;;;;;5070502;28;20195;-79
2022/03/24 09:42:02;;;;;;;23.40;17.40;;;;;;;;;;5070047;28;20323;-79
2022/03/24 09:44:29;;;;;;;24.37;18.73;;;;;;;;;;5069203;28;20310;-79
2022/03/24 09:46:55;;;;;;;23.73;19.37;;;;;;;;;;5066029;28;20216;-78
2022/03/24 09:49:21;;;;;;;25.57;19.57;;;;;;;;;;5068909;28;20197;-79
2022/03/24 09:51:48;;;;;;;27.57;19.33;;;;;;;;;;5066370;28;20185;-77
2022/03/24 09:54:14;;;;;;;25.27;18.10;;;;;;;;;;5068412;28;20265;-77
2022/03/24 09:56:40;;;;;;;24.50;17.83;;;;;;;;;;5054913;28;20217;-77
2022/03/24 09:59:09;;;;;;;23.50;18.00;;;;;;;;;;5060349;28;20216;-77
2022/03/24 10:01:36;;;;;;;23.17;16.33;;;;;;;;;;5063042;28;20199;-77
2022/03/24 10:04:16;;;;;;;22.70;17.23;;;;;;;;;;5067293;28;20185;-77
2022/03/24 10:07:02;;;;;;;24.43;18.47;;;;;;;;;;5060730;28;20263;-77
2022/03/24 10:09:38;;;;;;;23.53;16.67;;;;;;;;;;5054603;28;20263;-77
2022/03/24 10:12:06;;;;;;;27.27;18.70;;;;;;;;;;5065887;28;20958;-76
2022/03/24 10:14:33;;;;;;;25.93;18.33;;;;;;;;;;5068254;28;20188;-77
2022/03/24 10:17:06;;;;;;;25.30;18.17;;;;;;;;;;5067043;28;20204;-77
2022/03/24 10:19:32;;;;;;;27.40;18.53;;;;;;;;;;5063663;28;20437;-76
2022/03/24 10:21:58;;;;;;;27.33;20.40;;;;;;;;;;5067728;28;20197;-77
2022/03/24 10:24:25;;;;;;;31.10;20.40;;;;;;;;;;5062359;28;20188;-77
2022/03/24 10:26:51;;;;;;;26.77;20.00;;;;;;;;;;5048381;28;20185;-77
2022/03/24 10:29:22;;;;;;;27.90;19.60;;;;;;;;;;5066389;28;20633;-77
2022/03/24 10:32:11;;;;;;;27.03;19.23;;;;;;;;;;5066797;28;20722;-77
2022/03/24 10:34:39;;;;;;;28.77;21.07;;;;;;;;;;5044504;28;20263;-77
2022/03/24 10:37:07;;;;;;;27.90;21.83;;;;;;;;;;5068010;28;20174;-77
2022/03/24 10:39:37;;;;;;;30.10;21.50;;;;;;;;;;5067647;28;20183;-78
2022/03/24 10:42:14;;;;;;;28.80;21.47;;;;;;;;;;5067444;28;20201;-76
2022/03/24 10:45:01;;;;;;;28.07;21.70;;;;;;;;;;5065070;28;20180;-77
2022/03/24 10:47:42;;;;;;;29.10;21.83;;;;;;;;;;5063400;28;20181;-78
2022/03/24 10:50:24;;;;;;;29.53;21.53;;;;;;;;;;5050406;28;20189;-77
2022/03/24 10:52:51;;;;;;;31.23;21.07;;;;;;;;;;5044865;28;20267;-77
2022/03/24 10:55:32;;;;;;;28.87;20.27;;;;;;;;;;5065837;28;20216;-76
2022/03/24 10:57:58;;;;;;;28.43;22.30;;;;;;;;;;5067203;28;20204;-76
2022/03/24 11:00:24;;;;;;;28.23;21.60;;;;;;;;;;5067153;28;20208;-77
2022/03/24 11:02:51;;;;;;;28.53;20.77;;;;;;;;;;5058673;28;20321;-77
2022/03/24 11:05:17;;;;;;;25.87;19.57;;;;;;;;;;5064095;28;20185;-77
2022/03/24 11:07:51;;;;;;;31.30;22.00;;;;;;;;;;5061155;28;20184;-77
2022/03/24 11:10:18;;;;;;;25.73;20.20;;;;;;;;;;5066471;28;20189;-77
2022/03/24 11:12:44;;;;;;;28.03;21.23;;;;;;;;;;5059947;28;20328;-77
2022/03/24 11:15:10;;;;;;;28.30;21.97;;;;;;;;;;5059203;28;20782;-77
2022/03/24 11:17:38;;;;;;;28.57;22.90;;;;;;;;;;5059838;28;20233;-78
2022/03/24 11:20:09;;;;;;;28.40;22.20;;;;;;;;;;5071065;28;20733;-77
2022/03/24 11:22:44;;;;;;;30.70;23.20;;;;;;;;;;5071091;28;20815;-78
2022/03/24 11:25:11;;;;;;;31.47;23.23;;;;;;;;;;5066785;28;20196;-74
2022/03/24 11:27:37;;;;;;;25.90;20.37;;;;;;;;;;5064041;28;20284;-74
2022/03/24 11:30:05;;;;;;;28.07;21.27;;;;;;;;;;5071206;28;20197;-75
2022/03/24 11:32:34;;;;;;;30.43;22.47;;;;;;;;;;5066189;28;20365;-75
2022/03/24 11:35:01;;;;;;;28.30;22.10;;;;;;;;;;5067403;28;20200;-78
2022/03/24 11:37:28;;;;;;;27.70;21.47;;;;;;;;;;5068470;28;20185;-78
2022/03/24 11:40:20;;;;;;;30.07;21.80;;;;;;;;;;5070634;28;20260;-81
2022/03/24 11:42:48;;;;;;;27.33;21.47;;;;;;;;;;5063002;28;20245;-78
2022/03/24 11:45:14;;;;;;;31.97;21.97;;;;;;;;;;5065279;28;20189;-79
2022/03/24 11:47:52;;;;;;;28.27;20.77;;;;;;;;;;5067158;28;20185;-78
2022/03/24 11:50:18;;;;;;;30.20;23.03;;;;;;;;;;5066694;28;20192;-78
2022/03/24 11:52:44;;;;;;;26.10;21.03;;;;;;;;;;5065934;28;20630;-78
2022/03/24 11:55:15;;;;;;;30.43;20.47;;;;;;;;;;5066972;28;20185;-78
2022/03/24 11:57:42;;;;;;;25.97;20.10;;;;;;;;;;5069849;28;20185;-77
2022/03/24 12:00:14;;;;;;;29.07;20.87;;;;;;;;;;5086287;28;20189;-78
2022/03/24 12:02:44;;;;;;;29.03;20.23;;;;;;;;;;5067755;28;20208;-78
2022/03/24 12:05:11;;;;;;;29.90;20.90;;;;;;;;;;5059317;28;20228;-77
2022/03/24 12:07:38;;;;;;;26.30;21.03;;;;;;;;;;5066687;28;20181;-78
2022/03/24 12:10:06;;;;;;;25.33;20.03;;;;;;;;;;5065987;28;20203;-78
2022/03/24 12:12:33;;;;;;;26.93;20.57;;;;;;;;;;5067038;28;20212;-78
2022/03/24 12:15:08;;;;;;;25.77;20.63;;;;;;;;;;5065355;28;20778;-78
2022/03/24 12:17:34;;;;;;;24.47;20.57;;;;;;;;;;5067109;28;20181;-80
2022/03/24 12:20:01;;;;;;;23.43;19.50;;;;;;;;;;5065379;28;20201;-79
2022/03/24 12:22:32;;;;;;;25.07;20.77;;;;;;;;;;5069334;28;20213;-80
2022/03/24 12:24:59;;;;;;;25.30;20.17;;;;;;;;;;5069459;28;20185;-79
2022/03/24 12:27:25;;;;;;;24.43;19.67;;;;;;;;;;5060506;28;21052;-79
2022/03/24 12:30:11;;;;;;;22.70;19.33;;;;;;;;;;5065574;28;20181;-78
2022/03/24 12:32:37;;;;;;;25.97;20.80;;;;;;;;;;5064169;28;20209;-78
2022/03/24 12:35:03;;;;;;;22.77;19.73;;;;;;;;;;5049405;28;20189;-80
2022/03/24 12:37:33;;;;;;;21.77;19.10;;;;;;;;;;5064655;28;20181;-78
2022/03/24 12:40:05;;;;;;;21.93;19.47;;;;;;;;;;5059152;28;20838;-77
2022/03/24 12:42:45;;;;;;;21.30;18.70;;;;;;;;;;5061421;28;20213;-79
2022/03/24 12:45:18;;;;;;;22.17;18.40;;;;;;;;;;5066064;28;20188;-79
2022/03/24 12:47:47;;;;;;;23.03;19.17;;;;;;;;;;5064909;28;20279;-79
2022/03/24 12:50:16;;;;;;;20.67;18.27;;;;;;;;;;5067075;28;20196;-80
2022/03/24 12:52:50;;;;;;;20.97;18.77;;;;;;;;;;5066332;28;20648;-81
2022/03/24 12:55:39;;;;;;;24.97;19.70;;;;;;;;;;5066820;28;20177;-81
2022/03/24 12:58:09;;;;;;;23.30;19.40;;;;;;;;;;5062050;28;20280;-80
2022/03/24 13:00:40;;;;;;;21.40;19.10;;;;;;;;;;5062213;28;20225;-78
2022/03/24 13:03:07;;;;;;;21.97;19.03;;;;;;;;;;5061042;28;20204;-78
2022/03/24 13:05:34;;;;;;;21.37;18.20;;;;;;;;;;5066749;28;20565;-78
2022/03/24 13:08:02;;;;;;;18.87;16.87;;;;;;;;;;5066415;28;20195;-79
2022/03/24 13:10:31;;;;;;;18.90;16.90;;;;;;;;;;5068958;28;20210;-78
2022/03/24 13:12:58;;;;;;;19.90;17.73;;;;;;;;;;5066877;28;20221;-79
2022/03/24 13:15:32;;;;;;;20.27;18.17;;;;;;;;;;5047402;28;20202;-78
2022/03/24 13:18:00;;;;;;;21.50;18.47;;;;;;;;;;5068534;28;20268;-78
2022/03/24 13:20:28;;;;;;;23.30;18.57;;;;;;;;;;5069019;28;20183;-78
2022/03/24 13:22:54;;;;;;;19.53;17.43;;;;;;;;;;5062414;28;20216;-79
2022/03/24 13:25:26;;;;;;;19.73;17.50;;;;;;;;;;5067241;28;20680;-78
2022/03/24 13:27:56;;;;;;;21.63;18.07;;;;;;;;;;5042895;28;20194;-78
2022/03/24 13:30:27;;;;;;;25.13;19.57;;;;;;;;;;5068553;28;20667;-78
2022/03/24 13:32:54;;;;;;;20.67;18.23;;;;;;;;;;5067314;28;20339;-79
2022/03/24 13:35:22;;;;;;;21.93;18.87;;;;;;;;;;5063920;28;20189;-78
2022/03/24 13:37:51;;;;;;;22.80;20.13;;;;;;;;;;5062807;28;20664;-78
2022/03/24 13:40:20;;;;;;;20.70;18.50;;;;;;;;;;5067953;28;20193;-79
2022/03/24 13:42:46;;;;;;;19.50;17.50;;;;;;;;;;5065142;28;20208;-78
2022/03/24 13:45:13;;;;;;;20.27;17.47;;;;;;;;;;5059805;28;20276;-78
2022/03/24 13:47:41;;;;;;;19.80;17.80;;;;;;;;;;5063010;28;20739;-79
2022/03/24 13:50:08;;;;;;;21.43;18.83;;;;;;;;;;5081203;28;20200;-78
2022/03/24 13:52:41;;;;;;;23.07;19.40;;;;;;;;;;5046961;28;20217;-79
2022/03/24 13:55:11;;;;;;;23.20;19.33;;;;;;;;;;5048349;28;20228;-78
2022/03/24 13:57:44;;;;;;;24.10;18.93;;;;;;;;;;5063272;28;20665;-79
2022/03/24 14:00:11;;;;;;;21.07;18.80;;;;;;;;;;5062453;28;20193;-79
2022/03/24 14:02:37;;;;;;;19.13;17.13;;;;;;;;;;5062571;28;20217;-79
2022/03/24 14:05:05;;;;;;;19.80;17.67;;;;;;;;;;5065339;28;20185;-78
2022/03/24 14:07:32;;;;;;;22.87;18.50;;;;;;;;;;5063543;28;20255;-79
2022/03/24 14:09:59;;;;;;;21.67;19.27;;;;;;;;;;5068782;28;20176;-79
2022/03/24 14:12:27;;;;;;;19.53;17.63;;;;;;;;;;5066966;28;20213;-80
2022/03/24 14:14:53;;;;;;;22.60;18.33;;;;;;;;;;5048671;28;20182;-78
2022/03/24 14:17:24;;;;;;;19.93;17.40;;;;;;;;;;5060974;28;20174;-78
2022/03/24 14:19:54;;;;;;;22.73;19.47;;;;;;;;;;5064970;28;20611;-78
2022/03/24 14:22:21;;;;;;;20.10;18.10;;;;;;;;;;5065760;28;20205;-78